• Join FlightAware (Why Join?)
  • Login
  • US Flag 
09:45PM EDT


 

Airport Tracker/Info


-or-


 

Live Flight TrackerFlight Track Log ✈ DAL511 ✈ 09-Jul-2013 ✈ MMMX / MEX - KDTW

Flight Track Log - Related Links

Times and Time Zones

All times are in EDT time to prevent confusion due to time zone crossing. See the DAL511 flight status page for this flight to view local times or setup timezone preferences in your user account.

Time Position Orientation Groundspeed Altitude Reporting Facility
EDT Latitude Longitude Course Direction KTS MPH feet Rate Location/Type
10:15AM 19.5423 -99.0165 26° Northeast  Level FlightAware Approximate
10:16AM 19.6483 -98.9608 26° Northeast  Level FlightAware Approximate
10:17AM 19.7542 -98.9050 26° Northeast  Level FlightAware Approximate
10:18AM 19.8601 -98.8492 26° Northeast  Level FlightAware Approximate
10:19AM 19.9660 -98.7933 26° Northeast  Level FlightAware Approximate
10:20AM 20.0720 -98.7373 26° Northeast  Level FlightAware Approximate
10:21AM 20.1778 -98.6812 26° Northeast  Level FlightAware Approximate
10:22AM 20.2837 -98.6251 26° Northeast  Level FlightAware Approximate
10:23AM 20.3895 -98.5688 26° Northeast  Level FlightAware Approximate
10:24AM 20.4953 -98.5126 26° Northeast  Level FlightAware Approximate
10:25AM 20.6012 -98.4562 27° Northeast  Level FlightAware Approximate
10:26AM 20.7069 -98.3997 27° Northeast  Level FlightAware Approximate
10:27AM 20.8127 -98.3432 27° Northeast  Level FlightAware Approximate
10:28AM 20.9052 -98.2951 26° Northeast  Level FlightAware Approximate
10:29AM 21.0115 -98.2396 26° Northeast  Level FlightAware Approximate
10:30AM 21.1178 -98.1840 26° Northeast  Level FlightAware Approximate
10:31AM 21.2240 -98.1283 26° Northeast  Level FlightAware Approximate
10:32AM 21.3302 -98.0725 26° Northeast  Level FlightAware Approximate
10:33AM 21.4364 -98.0167 26° Northeast  Level FlightAware Approximate
10:34AM 21.5426 -97.9608 26° Northeast  Level FlightAware Approximate
10:35AM 21.6488 -97.9048 26° Northeast  Level FlightAware Approximate
10:36AM 21.7549 -97.8487 26° Northeast  Level FlightAware Approximate
10:37AM 21.8610 -97.7925 26° Northeast  Level FlightAware Approximate
10:38AM 21.9671 -97.7363 26° Northeast  Level FlightAware Approximate
10:39AM 22.0732 -97.6800 26° Northeast  Level FlightAware Approximate
10:40AM 22.1793 -97.6235 26° Northeast  Level FlightAware Approximate
10:41AM 22.2853 -97.5670 26° Northeast  Level FlightAware Approximate
10:42AM 22.3914 -97.5105 26° Northeast  Level FlightAware Approximate
10:43AM 22.4974 -97.4538 26° Northeast  Level FlightAware Approximate
10:44AM 22.6032 -97.3968 27° Northeast  Level FlightAware Approximate
10:45AM 22.7089 -97.3393 27° Northeast  Level FlightAware Approximate
10:46AM 22.8146 -97.2818 27° Northeast  Level FlightAware Approximate
10:47AM 22.9202 -97.2241 27° Northeast  Level FlightAware Approximate
10:48AM 23.0258 -97.1664 27° Northeast  Level FlightAware Approximate
10:49AM 23.1315 -97.1086 27° Northeast  Level FlightAware Approximate
10:50AM 23.2373 -97.0512 27° Northeast  Level FlightAware Approximate
10:51AM 23.3430 -96.9936 27° Northeast  Level FlightAware Approximate
10:52AM 23.4488 -96.9360 27° Northeast  Level FlightAware Approximate
10:53AM 23.5545 -96.8783 27° Northeast  Level FlightAware Approximate
10:54AM 23.6602 -96.8204 27° Northeast  Level FlightAware Approximate
10:55AM 23.7659 -96.7625 27° Northeast  Level FlightAware Approximate
10:56AM 23.8716 -96.7045 27° Northeast  Level FlightAware Approximate
10:57AM 23.9772 -96.6464 27° Northeast  Level FlightAware Approximate
10:58AM 24.0828 -96.5882 27° Northeast  Level FlightAware Approximate
10:59AM 24.1884 -96.5299 27° Northeast  Level FlightAware Approximate
11:00AM 24.2940 -96.4715 27° Northeast  Level FlightAware Approximate
11:01AM 24.3995 -96.4130 27° Northeast  Level FlightAware Approximate
11:02AM 24.5051 -96.3544 27° Northeast  Level FlightAware Approximate
11:03AM 24.6106 -96.2957 27° Northeast  Level FlightAware Approximate
11:04AM 24.7161 -96.2369 27° Northeast  Level FlightAware Approximate
11:05AM 24.8215 -96.1780 27° Northeast  Level FlightAware Approximate
11:06AM 24.9270 -96.1190 27° Northeast  Level FlightAware Approximate
11:07AM 25.0324 -96.0600 27° Northeast  Level FlightAware Approximate
11:08AM 25.1378 -96.0008 27° Northeast  Level FlightAware Approximate
11:09AM 25.2432 -95.9415 27° Northeast  Level FlightAware Approximate
11:10AM 25.3485 -95.8821 27° Northeast  Level FlightAware Approximate
11:11AM 25.4538 -95.8226 27° Northeast  Level FlightAware Approximate
11:12AM 25.5591 -95.7630 27° Northeast  Level FlightAware Approximate
11:13AM 25.6644 -95.7032 27° Northeast  Level FlightAware Approximate
11:14AM 25.7696 -95.6434 27° Northeast  Level FlightAware Approximate
11:15AM 25.8720 -95.5792 26° Northeast  Level FlightAware Approximate
11:15AM 25.7769 -97.0492 27° Northeast 456 525 33,000  Level Houston Center
11:16AM 25.9785 -95.5219 26° Northeast  Level FlightAware Approximate
11:17AM 26.0845 -95.4638 27° Northeast  Level FlightAware Approximate
11:17AM 25.9111 -97.0186 12° North 456 525 33,500  Level Houston Center
11:18AM 26.1899 -95.4040 27° Northeast  Level FlightAware Approximate
11:18AM 26.0256 -96.9633 23° Northeast 452 520 34,600  Level Houston Center
11:19AM 26.2952 -95.3441 27° Northeast  Level FlightAware Approximate
11:19AM 26.1456 -96.8986 26° Northeast 447 514 35,000  Level Houston Center
11:20AM 26.4006 -95.2842 27° Northeast  Level FlightAware Approximate
11:20AM 26.2572 -96.8392 26° Northeast 444 511 35,000  Level Houston Center
11:21AM 26.5058 -95.2241 27° Northeast  Level FlightAware Approximate
11:21AM 26.3775 -96.7733 26° Northeast 447 514 35,000  Level Houston Center
11:22AM 26.4825 -96.7164 26° Northeast 444 511 35,000 -60 Level Houston Center
11:23AM 26.5933 -96.6553 26° Northeast 443 510 34,900  Descending Houston Center
11:24AM 26.7058 -96.5933 26° Northeast 448 516 35,000  Climbing Houston Center
11:25AM 26.8181 -96.5325 26° Northeast 449 517 35,000 -60 Level Houston Center
11:26AM 26.9342 -96.4683 26° Northeast 448 516 34,900  Descending Houston Center
11:27AM 27.0675 -96.3956 26° Northeast 446 513 35,000  Climbing Houston Center
11:28AM 27.1786 -96.3342 26° Northeast 444 511 35,000  Level Houston Center
11:29AM 27.2903 -96.2731 26° Northeast 447 514 35,000  Level Houston Center
11:30AM 27.4017 -96.2114 26° Northeast 446 513 35,000  Level Houston Center
11:31AM 27.5122 -96.1494 26° Northeast 445 512 35,000 -60 Level Houston Center
11:32AM 27.6225 -96.0875 26° Northeast 444 511 34,900 -60 Descending Houston Center
11:33AM 27.7581 -96.0125 26° Northeast 452 520 34,900  Level Houston Center
11:34AM 27.8719 -95.9486 26° Northeast 457 526 35,000  Climbing Houston Center
11:35AM 27.9850 -95.8856 26° Northeast 455 524 34,900  Descending Houston Center
11:36AM 28.0994 -95.8208 27° Northeast 459 528 35,000  Climbing Houston Center
11:37AM 28.2133 -95.7569 26° Northeast 458 527 34,900  Descending Houston Center
11:38AM 28.3456 -95.6817 27° Northeast 453 521 35,000  Climbing Houston Center
11:39AM 28.4603 -95.6161 27° Northeast 459 528 35,000  Level Houston Center
11:40AM 28.5744 -95.5522 26° Northeast 459 528 35,000  Level Houston Center
11:41AM 28.6881 -95.4875 27° Northeast 457 526 35,000  Level Houston Center
11:42AM 28.8006 -95.4222 27° Northeast 455 524 35,000  Level Houston Center
11:43AM 28.9156 -95.3578 26° Northeast 459 528 35,000  Level Houston Center
11:44AM 29.0511 -95.2794 27° Northeast 458 527 35,000  Level Houston Center
11:45AM 29.1653 -95.2128 27° Northeast 460 529 35,000  Level Houston Center
11:47AM 29.2775 -95.1481 27° Northeast 456 525 35,000  Level Houston Center
11:48AM 29.3897 -95.0819 27° Northeast 457 526 35,000  Level Houston Center
11:49AM 29.5247 -95.0028 27° Northeast 462 532 35,000  Level Houston Center
11:50AM 29.6378 -94.9394 26° Northeast 463 533 35,000  Level Houston Center
11:51AM 29.7500 -94.8756 26° Northeast 468 539 35,000  Level Houston Center
11:52AM 29.8608 -94.8106 27° Northeast 460 529 35,000  Level Houston Center
11:53AM 29.9750 -94.7436 27° Northeast 464 534 35,000  Level Houston Center
11:54AM 30.1111 -94.6633 27° Northeast 463 533 35,000  Level Houston Center
11:55AM 30.2175 -94.5833 33° Northeast 461 531 35,000  Level Houston Center
11:56AM 30.3231 -94.5003 34° Northeast 462 532 35,000  Level Houston Center
11:57AM 30.4406 -94.4064 35° Northeast 457 526 35,000 -60 Level Houston Center
11:58AM 30.5442 -94.3233 35° Northeast 453 521 34,900 -60 Descending Houston Center
11:59AM 30.6497 -94.2403 34° Northeast 455 524 34,900  Level Houston Center
12:00PM 30.7525 -94.1581 35° Northeast 444 511 35,000  Climbing Houston Center
12:01PM 30.8581 -94.0739 34° Northeast 454 522 34,900 -60 Descending Houston Center
12:02PM 30.9644 -93.9883 35° Northeast 460 529 34,900  Level Houston Center
12:03PM 31.0764 -93.8967 35° Northeast 462 532 35,000  Climbing Houston Center
12:04PM 31.1964 -93.8011 34° Northeast 457 526 35,000  Level Houston Center
12:05PM 31.3078 -93.7097 35° Northeast 463 533 35,000  Level Houston Center
12:06PM 31.4128 -93.6242 35° Northeast 461 531 35,000  Level Houston Center
12:07PM 31.5100 -93.5447 35° Northeast 461 531 35,000  Level Houston Center
12:08PM 31.6161 -93.4592 34° Northeast 459 528 35,000  Level Houston Center
12:09PM 31.7406 -93.3550 35° Northeast 456 525 35,000  Level Houston Center
12:10PM 31.8469 -93.2686 35° Northeast 459 528 35,000  Level Houston Center
12:11PM 31.9514 -93.1803 36° Northeast 460 529 35,000  Level Houston Center
12:12PM 32.0569 -93.0936 35° Northeast 461 531 35,000  Level Houston Center
12:13PM 32.1622 -93.0061 35° Northeast 461 531 35,000  Level Houston Center
12:14PM 32.2689 -92.9200 34° Northeast 460 529 35,000  Level Fort Worth Center
12:15PM 32.3722 -92.8361 34° Northeast 460 529 35,000  Level Fort Worth Center
12:16PM 32.4772 -92.7372 38° Northeast 465 535 35,000  Level Fort Worth Center
12:17PM 32.5844 -92.6478 35° Northeast 471 542 35,000  Level Fort Worth Center
12:18PM 32.6878 -92.5633 35° Northeast 464 534 35,000  Level Fort Worth Center
12:19PM 32.7947 -92.4736 35° Northeast 464 534 35,000  Level Fort Worth Center
12:20PM 32.8978 -92.3861 35° Northeast 464 534 35,000  Level Fort Worth Center
12:22PM 33.0797 -92.2317 35° Northeast 474 545 35,000  Level Memphis Center
12:23PM 33.1853 -92.1394 36° Northeast 474 545 35,000  Level Memphis Center
12:24PM 33.2908 -92.0522 35° Northeast 469 540 35,000  Level Memphis Center
12:25PM 33.3986 -91.9622 35° Northeast 462 532 35,000  Level Memphis Center
12:26PM 33.5000 -91.8719 37° Northeast 462 532 35,000  Level Memphis Center
12:27PM 33.6075 -91.7839 34° Northeast 457 526 35,000  Level Memphis Center
12:28PM 33.7003 -91.6956 38° Northeast 449 517 35,000  Level Memphis Center
12:29PM 33.8056 -91.6047 36° Northeast 449 517 35,000  Level Memphis Center
12:30PM 33.9067 -91.5136 37° Northeast 455 524 35,000  Level Memphis Center
12:31PM 34.0117 -91.4247 35° Northeast 455 524 35,000  Level Memphis Center
12:32PM 34.1147 -91.3356 36° Northeast 460 529 35,000  Level Memphis Center
12:33PM 34.2197 -91.2414 37° Northeast 460 529 35,000  Level Memphis Center
12:34PM 34.3225 -91.1494 36° Northeast 460 529 35,000  Level Memphis Center
12:35PM 34.4358 -91.0472 37° Northeast 460 529 35,000  Level Memphis Center
12:36PM 34.5428 -90.9572 35° Northeast 460 529 35,000  Level Memphis Center
12:37PM 34.6494 -90.8619 36° Northeast 460 529 35,000  Level Memphis Center
12:38PM 34.7564 -90.7692 35° Northeast 460 529 35,000  Level Memphis Center
12:39PM 34.8608 -90.6733 37° Northeast 460 529 35,000  Level Memphis Center
12:40PM 34.9675 -90.5775 36° Northeast 465 535 35,000  Level Memphis Center
12:41PM 35.0719 -90.4839 36° Northeast 470 541 35,000  Level Memphis Center
12:42PM 35.1658 -90.4003 36° Northeast 465 535 35,000  Level Memphis Center
12:43PM 35.2703 -90.3061 36° Northeast 465 535 35,000  Level Memphis Center
12:44PM 35.3744 -90.2067 38° Northeast 465 535 35,000  Level Memphis Center
12:45PM 35.4786 -90.1122 36° Northeast 459 528 35,000  Level Memphis Center
12:46PM 35.5908 -90.0097 37° Northeast 459 528 35,000  Level Memphis Center
12:47PM 35.6950 -89.9097 38° Northeast 459 528 35,000  Level Memphis Center
12:48PM 35.7800 -89.8272 38° Northeast 441 507 35,000  Level Memphis Center
12:49PM 35.8817 -89.7319 37° Northeast 451 519 35,000  Level Memphis Center
12:50PM 35.9856 -89.6361 37° Northeast 458 527 35,000  Level Memphis Center
12:51PM 36.0869 -89.5403 37° Northeast 458 527 35,000  Level Memphis Center
12:52PM 36.1906 -89.4439 37° Northeast 458 527 35,000  Level Memphis Center
12:53PM 36.3044 -89.3344 38° Northeast 458 527 35,000  Level Memphis Center
12:54PM 36.4183 -89.2353 35° Northeast 476 548 35,000  Level Memphis Center
12:55PM 36.5214 -89.1306 39° Northeast 476 548 35,000  Level Memphis Center
12:56PM 36.6247 -89.0358 36° Northeast 471 542 35,000  Level Memphis Center
12:57PM 36.7278 -88.9356 38° Northeast 471 542 35,000  Level Memphis Center
12:58PM 36.8289 -88.8406 37° Northeast 460 529 35,000  Level Memphis Center
12:59PM 36.9317 -88.7400 38° Northeast 460 529 35,000  Level Memphis Center
01:00PM 37.0347 -88.6444 36° Northeast 460 529 35,000  Level Memphis Center
01:01PM 37.1333 -88.5461 38° Northeast 455 524 35,000  Level Memphis Center
01:02PM 37.2358 -88.4472 38° Northeast 455 524 35,000  Level Memphis Center
01:04PM 37.4175 -88.2675 38° Northeast 455 524 35,000  Level Indianapolis Center
01:05PM 37.5200 -88.1664 38° Northeast 460 529 35,000  Level Indianapolis Center
01:06PM 37.6208 -88.0669 38° Northeast 457 526 35,000  Level Indianapolis Center
01:07PM 37.7225 -87.9667 38° Northeast 459 528 35,000  Level Indianapolis Center
01:08PM 37.8322 -87.8567 38° Northeast 457 526 35,000  Level Indianapolis Center
01:09PM 37.9342 -87.7594 37° Northeast 458 527 35,000  Level Indianapolis Center
01:10PM 38.0439 -87.6800 30° Northeast 452 520 35,000  Level Indianapolis Center
01:11PM 38.1550 -87.5992 30° Northeast 455 524 35,000  Level Indianapolis Center
01:12PM 38.2667 -87.5203 29° Northeast 454 522 35,000  Level Indianapolis Center
01:13PM 38.3786 -87.4392 30° Northeast 454 522 35,000  Level Indianapolis Center
01:14PM 38.4917 -87.3553 30° Northeast 461 531 35,000  Level Indianapolis Center
01:15PM 38.6044 -87.2725 30° Northeast 461 531 35,000  Level Indianapolis Center
01:16PM 38.7172 -87.1892 30° Northeast 462 532 35,000  Level Indianapolis Center
01:17PM 38.8289 -87.1061 30° Northeast 462 532 35,000  Level Indianapolis Center
01:18PM 38.9689 -87.0564 15° North 431 496 35,000  Level Indianapolis Center
01:19PM 39.0889 -87.0314 North 432 497 35,000 -180 Level Indianapolis Center
01:21PM 39.2125 -87.0053 North 433 498 34,700 -600 Descending Indianapolis Center
01:22PM 39.3311 -86.9797 North 433 498 33,800 -840 Descending Indianapolis Center
01:23PM 39.4517 -86.9536 North 437 503 33,000 -420 Descending Indianapolis Center
01:24PM 39.5728 -86.9258 10° North 440 506 33,000  Level Indianapolis Center
01:25PM 39.6758 -86.8411 32° Northeast 447 514 33,000  Level Indianapolis Center
01:26PM 39.7158 -86.6911 71° East 448 516 33,000  Level Indianapolis Center
01:27PM 39.7308 -86.4953 84° East 455 524 33,000  Level Indianapolis Center
01:28PM 39.7739 -86.3450 70° East 454 522 33,000  Level Indianapolis Center
01:29PM 39.8769 -86.2400 38° Northeast 445 512 33,000 -1,080 Level Indianapolis Center
01:30PM 39.9781 -86.1453 36° Northeast 445 512 30,800 -1,500 Descending Indianapolis Center
01:31PM 40.0822 -86.0469 36° Northeast 460 529 30,000 -480 Descending Indianapolis Center
01:32PM 40.1667 -85.9656 36° Northeast 468 539 30,000  Level Chicago Center
01:33PM 40.2711 -85.8669 36° Northeast 467 537 30,000  Level Chicago Center
01:34PM 40.3764 -85.7686 35° Northeast 464 534 30,000 -600 Level Chicago Center
01:35PM 40.4825 -85.6683 36° Northeast 472 543 28,800 -1,500 Descending Chicago Center
01:36PM 40.5900 -85.5647 36° Northeast 479 551 27,000 -1,980 Descending Chicago Center
01:37PM 40.7019 -85.4561 36° Northeast 478 550 24,800 -1,800 Descending Chicago Center
01:38PM 40.8058 -85.3556 36° Northeast 468 539 23,400 -1,860 Descending Chicago Center
01:39PM 40.9147 -85.2231 43° Northeast 447 514 21,000 -1,200 Descending Chicago Center
01:40PM 40.9761 -85.0797 60° Northeast 448 516 21,000  Level Chicago Center
01:41PM 41.0286 -84.9317 65° Northeast 448 516 21,000  Level Chicago Center
01:42PM 41.0822 -84.7842 64° Northeast 449 517 21,000 -180 Level Chicago Center
01:43PM 41.1764 -84.6828 39° Northeast 441 507 20,700 -720 Descending Chicago Center
01:44PM 41.2914 -84.5683 37° Northeast 433 498 19,600 -1,080 Descending Chicago Center
01:45PM 41.3853 -84.4767 36° Northeast 424 488 18,500 -960 Descending Chicago Center
01:46PM 41.4747 -84.3889 36° Northeast 405 466 17,700 -900 Descending Chicago Center
01:47PM 41.5600 -84.3042 37° Northeast 388 447 16,700 -1,320 Descending Chicago Center
01:48PM 41.6436 -84.2206 37° Northeast 381 438 15,200 -1,860 Descending Cleveland Center
01:48PM 41.6908 -84.1789 33° Northeast 374 430 14,100 -2,160 Descending Cleveland Center
01:49PM 41.7642 -84.1022 38° Northeast 364 419 12,200 -1,140 Descending Cleveland Center
01:50PM 41.8458 -84.0203 37° Northeast 365 420 12,000 -120 Descending Cleveland Center
01:51PM 41.9156 -83.9233 46° Northeast 365 420 12,000 -60 Level Cleveland Center
01:52PM 41.9872 -83.8239 46° Northeast 366 421 11,900 -60 Descending Cleveland Center
01:53PM 42.0567 -83.7267 46° Northeast 364 419 11,900  Level Cleveland Center
01:54PM 42.1258 -83.6264 47° Northeast 339 390 12,000  Climbing Cleveland Center
01:55PM 42.1822 -83.5478 46° Northeast 261 300 11,900 -480 Descending Cleveland Center
01:56PM 42.2397 -83.5058 28° Northeast 258 297 11,100 -1,440 Descending Cleveland Center
01:58PM 42.3097 -83.4500 31° Northeast 259 298 9,000 -1,920 Descending Cleveland Center
01:59PM 42.3714 -83.4050 28° Northeast 245 282 7,100 -1,860 Descending Cleveland Center
02:00PM 42.4308 -83.3625 28° Northeast 240 276 5,300 -1,560 Descending Cleveland Center
02:01PM 42.4553 -83.2933 64° Northeast 240 276 4,000 -660 Descending Cleveland Center
02:02PM 42.4042 -83.2489 147° Southeast 203 234 4,000 -420 Level Cleveland Center
02:03PM 42.3536 -83.2722 199° South 187 215 3,200 -840 Descending Cleveland Center